Greeley, Colorado
Current Conditions -  °F | °C
As of 9:15 PM on Wednesday 28 Jan 2015 (Local Time) from KGXY Reporting Station
Broken Clouds Broken Clouds  
Wind Chill: 32°   Ceiling: 10000
Heat Index: 43°   Visibility: 10mi
Dew Point: 27°   Wind: 29mph
Humidity: 53%   Direction: 10°N
Pressure: 30.21"   Gusts: 38mph
Location:  40.42°N, 104.69°W
Report Text: KGXY 290415Z AUTO 01025G33KT 10SM BKN100 06/M03 A3021 RMK AO1
Loading
Personal Weather Stations






























Interactive Weather Map New forecast layout! Learn more

10-Day Weather Forecast

Advertisements
Track Severe Weather on mobile